Time;durP1;ratioP1;P1;durP2;ratioP2;P2;SDS_P1;SDS_P2;PMS_P1;PMS_P2;Temp;Humidity;BMP_temperature;BMP_pressure;BME280_temperature;BME280_humidity;BME280_pressure;Samples;Min_cycle;Max_cycle;Signal;HPM_P1;HPM_P2
2023/04/11 00:00:31;;;;;;;5.75;2.70;;;16.10;69.10;;;;;;5044187;28;20026;-56
2023/04/11 00:02:58;;;;;;;3.75;2.67;;;16.10;69.00;;;;;;5043902;28;20442;-56
2023/04/11 00:05:26;;;;;;;6.45;2.70;;;16.10;69.00;;;;;;5043805;28;20030;-56
2023/04/11 00:07:51;;;;;;;4.38;2.33;;;16.10;69.00;;;;;;5045486;28;20040;-56
2023/04/11 00:10:17;;;;;;;4.55;2.90;;;16.00;68.80;;;;;;5027093;28;20033;-56
2023/04/11 00:12:42;;;;;;;4.50;3.13;;;16.00;68.90;;;;;;5043665;28;20041;-56
2023/04/11 00:15:08;;;;;;;3.40;2.90;;;16.00;68.80;;;;;;5043641;28;20056;-56
2023/04/11 00:17:36;;;;;;;5.20;3.10;;;16.00;68.80;;;;;;5043558;28;20029;-56
2023/04/11 00:20:06;;;;;;;5.45;3.60;;;16.00;68.70;;;;;;5043857;28;20039;-56
2023/04/11 00:22:37;;;;;;;6.85;3.95;;;16.00;68.70;;;;;;5043696;28;20025;-56
2023/04/11 00:25:03;;;;;;;10.73;4.18;;;16.00;68.70;;;;;;5045018;28;20026;-56
2023/04/11 00:27:29;;;;;;;7.95;3.55;;;16.00;68.80;;;;;;5043554;28;20032;-56
2023/04/11 00:29:56;;;;;;;4.47;3.45;;;16.00;68.80;;;;;;5043361;28;20442;-56
2023/04/11 00:32:25;;;;;;;4.00;3.13;;;16.00;68.60;;;;;;5043297;28;20025;-56
2023/04/11 00:34:50;;;;;;;6.10;2.97;;;16.00;68.70;;;;;;5043222;28;20088;-56
2023/04/11 00:37:16;;;;;;;9.90;3.35;;;16.00;68.70;;;;;;5044621;28;20033;-56
2023/04/11 00:39:44;;;;;;;6.15;3.10;;;16.00;68.60;;;;;;5043443;28;20037;-56
2023/04/11 00:42:10;;;;;;;5.75;3.58;;;16.00;68.50;;;;;;5027044;28;20018;-56
2023/04/11 00:44:35;;;;;;;6.05;3.53;;;16.00;68.40;;;;;;5043195;28;20093;-56
2023/04/11 00:47:01;;;;;;;4.95;3.10;;;16.00;68.40;;;;;;5044534;28;20425;-56
2023/04/11 00:49:28;;;;;;;4.45;3.03;;;16.00;68.40;;;;;;5044807;28;20025;-56
2023/04/11 00:51:54;;;;;;;4.70;3.00;;;16.00;68.40;;;;;;5026642;28;20049;-56
2023/04/11 00:54:19;;;;;;;4.15;3.00;;;16.00;68.30;;;;;;5043279;28;20019;-56
2023/04/11 00:56:45;;;;;;;6.03;3.40;;;16.00;68.30;;;;;;5043267;28;20076;-56
2023/04/11 00:59:11;;;;;;;7.30;3.22;;;16.00;68.20;;;;;;5043175;28;20021;-56
2023/04/11 01:01:37;;;;;;;4.53;3.42;;;15.90;68.80;;;;;;5043249;28;20064;-56
2023/04/11 01:04:03;;;;;;;7.85;3.60;;;15.90;68.20;;;;;;5043153;28;20033;-56
2023/04/11 01:06:29;;;;;;;5.95;3.60;;;15.90;68.20;;;;;;5043025;28;20044;-56
2023/04/11 01:08:55;;;;;;;5.97;3.70;;;15.90;68.30;;;;;;5043161;28;20068;-56
2023/04/11 01:11:20;;;;;;;4.95;3.20;;;15.90;68.20;;;;;;5043225;28;20025;-56
2023/04/11 01:13:46;;;;;;;4.55;3.50;;;15.90;68.30;;;;;;5042910;28;20188;-56
2023/04/11 01:16:13;;;;;;;8.52;3.90;;;15.90;68.30;;;;;;5043100;28;20025;-56
2023/04/11 01:18:39;;;;;;;4.97;3.10;;;15.90;68.20;;;;;;5042974;28;20033;-56
2023/04/11 01:21:05;;;;;;;6.80;3.70;;;15.90;68.30;;;;;;5044513;28;20026;-56
2023/04/11 01:23:33;;;;;;;5.88;3.70;;;15.90;68.30;;;;;;5042943;28;20040;-56
2023/04/11 01:25:58;;;;;;;5.57;3.40;;;15.90;68.40;;;;;;5043301;28;20401;-56
2023/04/11 01:28:24;;;;;;;5.65;3.25;;;15.90;68.40;;;;;;5043094;28;20033;-56
2023/04/11 01:30:50;;;;;;;5.30;3.22;;;15.90;68.30;;;;;;5044291;28;20041;-56
2023/04/11 01:33:15;;;;;;;3.83;3.08;;;15.90;68.30;;;;;;5042822;28;20030;-56
2023/04/11 01:35:41;;;;;;;5.03;3.08;;;15.90;68.30;;;;;;5042994;28;20029;-56
2023/04/11 01:38:06;;;;;;;4.20;3.10;;;15.80;68.40;;;;;;5042872;28;20053;-56
2023/04/11 01:40:32;;;;;;;6.20;3.08;;;15.80;68.40;;;;;;5042874;28;20055;-56
2023/04/11 01:42:58;;;;;;;6.35;3.13;;;15.80;68.60;;;;;;5043011;28;20057;-56
2023/04/11 01:45:27;;;;;;;5.15;3.33;;;15.90;68.70;;;;;;5026282;28;20036;-56
2023/04/11 01:47:53;;;;;;;3.53;2.78;;;15.80;68.60;;;;;;5042813;28;20030;-56
2023/04/11 01:50:22;;;;;;;4.57;3.05;;;15.90;68.80;;;;;;5042866;28;20103;-56
2023/04/11 01:52:48;;;;;;;5.85;3.22;;;15.90;68.80;;;;;;5042523;28;20107;-56
2023/04/11 01:55:14;;;;;;;3.88;2.78;;;15.80;68.70;;;;;;5042743;28;20093;-56
2023/04/11 01:57:39;;;;;;;4.15;2.80;;;15.80;68.60;;;;;;5043914;28;20049;-56
2023/04/11 02:00:07;;;;;;;3.22;2.47;;;15.80;68.70;;;;;;5028838;28;20041;-56
2023/04/11 02:02:33;;;;;;;4.88;3.10;;;15.80;68.80;;;;;;5047554;28;20037;-56
2023/04/11 02:04:58;;;;;;;4.28;2.85;;;15.80;68.80;;;;;;5047428;28;20040;-56
2023/04/11 02:07:24;;;;;;;4.82;2.85;;;15.80;69.50;;;;;;5047455;28;20036;-56
2023/04/11 02:09:49;;;;;;;4.13;2.78;;;15.80;68.80;;;;;;5046292;28;20025;-56
2023/04/11 02:12:15;;;;;;;3.67;2.80;;;15.80;68.90;;;;;;5045669;28;20052;-56
2023/04/11 02:14:42;;;;;;;4.40;2.55;;;15.80;68.80;;;;;;5029368;28;20316;-56
2023/04/11 02:17:08;;;;;;;4.35;3.08;;;15.80;68.90;;;;;;5046027;28;20037;-56
2023/04/11 02:19:39;;;;;;;5.07;3.00;;;15.80;68.90;;;;;;5045975;28;20056;-56
2023/04/11 02:22:06;;;;;;;4.20;2.35;;;15.80;68.80;;;;;;5046068;28;20030;-56
2023/04/11 02:24:32;;;;;;;5.32;2.92;;;15.80;68.90;;;;;;5045809;28;20030;-56
2023/04/11 02:26:59;;;;;;;7.15;2.42;;;15.80;68.90;;;;;;5047250;28;20026;-57
2023/04/11 02:29:25;;;;;;;3.20;2.70;;;15.80;68.90;;;;;;5045852;28;20044;-56
2023/04/11 02:31:51;;;;;;;5.10;2.78;;;15.70;68.90;;;;;;5047270;28;20030;-56
2023/04/11 02:34:16;;;;;;;4.68;2.60;;;15.70;68.90;;;;;;5045527;28;20139;-56
2023/04/11 02:36:42;;;;;;;2.85;2.28;;;15.70;68.90;;;;;;5047016;28;20030;-56
2023/04/11 02:39:08;;;;;;;6.00;2.67;;;15.70;68.90;;;;;;5045745;28;20025;-56
2023/04/11 02:41:36;;;;;;;3.47;2.30;;;15.70;69.60;;;;;;5045714;28;20029;-56
2023/04/11 02:44:02;;;;;;;6.88;2.78;;;15.70;68.90;;;;;;5045549;28;20037;-56
2023/04/11 02:46:28;;;;;;;5.18;2.63;;;15.70;68.90;;;;;;5046720;28;20107;-56
2023/04/11 02:48:53;;;;;;;2.85;2.28;;;15.70;69.00;;;;;;5045385;28;20037;-56
2023/04/11 02:51:19;;;;;;;5.88;2.20;;;15.70;69.00;;;;;;5028535;28;20080;-56
2023/04/11 02:53:45;;;;;;;5.72;2.50;;;15.60;69.20;;;;;;5046601;28;20116;-56
2023/04/11 02:56:10;;;;;;;4.63;2.20;;;15.60;69.40;;;;;;5028823;28;20075;-56
2023/04/11 02:58:40;;;;;;;5.43;2.10;;;15.60;69.60;;;;;;5045206;28;20450;-56
2023/04/11 03:01:06;;;;;;;6.05;2.28;;;15.60;69.90;;;;;;5045148;28;20022;-56
2023/04/11 03:03:32;;;;;;;3.85;2.65;;;15.60;70.00;;;;;;5044993;28;20057;-56
2023/04/11 03:05:58;;;;;;;4.13;2.17;;;15.60;70.20;;;;;;5045063;28;20498;-56
2023/04/11 03:08:24;;;;;;;7.05;2.30;;;15.60;70.40;;;;;;5045019;28;20049;-56
2023/04/11 03:10:50;;;;;;;3.50;2.35;;;15.60;70.40;;;;;;5043856;28;20054;-56
2023/04/11 03:13:15;;;;;;;3.60;1.92;;;15.60;70.50;;;;;;5044947;28;20045;-56
2023/04/11 03:15:41;;;;;;;2.80;2.00;;;15.50;70.50;;;;;;5046258;28;20088;-56
2023/04/11 03:18:06;;;;;;;2.60;1.75;;;15.50;70.70;;;;;;5046274;28;20029;-56
2023/04/11 03:20:32;;;;;;;2.60;1.60;;;15.50;70.80;;;;;;5046092;28;20350;-57
2023/04/11 03:22:58;;;;;;;4.45;2.20;;;15.50;71.10;;;;;;5044742;28;20029;-57
2023/04/11 03:25:23;;;;;;;2.30;1.65;;;15.50;71.30;;;;;;5044799;28;20029;-57
2023/04/11 03:27:49;;;;;;;3.42;1.90;;;15.40;71.40;;;;;;5046164;28;20041;-57
2023/04/11 03:30:15;;;;;;;3.45;2.10;;;15.40;71.80;;;;;;5044727;28;20040;-56
2023/04/11 03:32:40;;;;;;;2.45;1.70;;;15.40;72.20;;;;;;5044588;28;20034;-56
2023/04/11 03:35:06;;;;;;;4.28;1.80;;;15.40;72.50;;;;;;5027916;28;20026;-56
2023/04/11 03:37:32;;;;;;;19.35;2.97;;;15.30;72.90;;;;;;5045860;28;20029;-56
2023/04/11 03:39:57;;;;;;;19.23;3.22;;;15.30;73.00;;;;;;5027927;28;20449;-56
2023/04/11 03:42:23;;;;;;;21.27;3.20;;;15.30;73.80;;;;;;5044311;28;20022;-56
2023/04/11 03:44:48;;;;;;;16.48;3.25;;;15.20;74.10;;;;;;5044452;28;20048;-56
2023/04/11 03:47:14;;;;;;;16.02;2.92;;;15.20;74.50;;;;;;5044204;28;20063;-56
2023/04/11 03:49:40;;;;;;;10.68;3.00;;;15.10;75.20;;;;;;5045560;28;20026;-56
2023/04/11 03:52:06;;;;;;;13.32;2.95;;;15.10;75.70;;;;;;5027472;28;20029;-57
2023/04/11 03:54:32;;;;;;;6.63;2.65;;;15.10;76.10;;;;;;5045657;28;20041;-56
2023/04/11 03:56:57;;;;;;;13.10;2.97;;;15.00;76.30;;;;;;5044038;28;20032;-56
2023/04/11 03:59:23;;;;;;;10.00;2.58;;;15.00;76.50;;;;;;5045573;28;20029;-56
2023/04/11 04:01:48;;;;;;;8.65;2.10;;;15.00;76.90;;;;;;5043835;28;20108;-56
2023/04/11 04:04:14;;;;;;;13.00;2.47;;;15.00;77.20;;;;;;5044008;28;20041;-56
2023/04/11 04:06:39;;;;;;;11.43;2.58;;;15.00;77.70;;;;;;5045519;28;20469;-56
2023/04/11 04:09:05;;;;;;;15.10;3.00;;;15.00;78.00;;;;;;5043922;28;20033;-56
2023/04/11 04:11:31;;;;;;;12.73;2.75;;;15.00;77.90;;;;;;5044986;28;20155;-56
2023/04/11 04:13:57;;;;;;;14.07;2.75;;;14.90;78.20;;;;;;5043780;28;20099;-56
2023/04/11 04:16:22;;;;;;;7.43;2.30;;;14.90;78.50;;;;;;5045016;28;20034;-56
2023/04/11 04:18:48;;;;;;;5.97;2.13;;;14.90;79.00;;;;;;5043978;28;20057;-56
2023/04/11 04:21:14;;;;;;;10.40;2.40;;;14.90;79.60;;;;;;5044539;28;20025;-56
2023/04/11 04:23:46;;;;;;;7.47;2.10;;;14.90;80.60;;;;;;5027239;28;20029;-56
2023/04/11 04:26:14;;;;;;;8.93;1.83;;;14.90;80.40;;;;;;5045045;28;20026;-56
2023/04/11 04:28:44;;;;;;;13.93;2.08;;;14.90;80.70;;;;;;5045260;28;20109;-55
2023/04/11 04:31:11;;;;;;;14.73;2.22;;;14.80;81.10;;;;;;5045009;28;20029;-56
2023/04/11 04:33:36;;;;;;;8.98;2.00;;;14.80;81.50;;;;;;5043500;28;20030;-56
2023/04/11 04:36:03;;;;;;;5.70;1.75;;;14.70;81.80;;;;;;5043520;28;20171;-56
2023/04/11 04:38:29;;;;;;;11.80;1.88;;;14.70;82.00;;;;;;5044698;28;20108;-56
2023/04/11 04:40:55;;;;;;;12.60;1.92;;;14.70;82.50;;;;;;5043217;28;20112;-56
2023/04/11 04:43:22;;;;;;;4.55;1.55;;;14.70;82.90;;;;;;5043299;28;20042;-56
2023/04/11 04:45:48;;;;;;;6.32;1.77;;;14.70;83.10;;;;;;5043580;28;20106;-56
2023/04/11 04:48:13;;;;;;;4.30;1.52;;;14.70;83.30;;;;;;5044646;28;20029;-56
2023/04/11 04:50:39;;;;;;;16.98;2.35;;;14.60;83.30;;;;;;5043386;28;20041;-56
2023/04/11 04:53:05;;;;;;;2.30;1.40;;;14.70;83.80;;;;;;5044690;28;20037;-56
2023/04/11 04:55:32;;;;;;;2.85;1.50;;;14.60;83.90;;;;;;5043587;28;20048;-56
2023/04/11 04:57:57;;;;;;;3.20;1.55;;;14.60;83.90;;;;;;5043474;28;20119;-56
2023/04/11 05:00:23;;;;;;;3.22;1.63;;;14.60;84.20;;;;;;5043597;28;20029;-56
2023/04/11 05:02:48;;;;;;;4.47;1.75;;;14.60;84.20;;;;;;5042809;28;20034;-56
2023/04/11 05:05:14;;;;;;;4.78;1.67;;;14.60;84.20;;;;;;5043634;28;20040;-56
2023/04/11 05:07:41;;;;;;;3.85;1.73;;;14.60;84.30;;;;;;5043323;28;20105;-55
2023/04/11 05:10:07;;;;;;;6.03;1.73;;;14.60;84.20;;;;;;5044492;28;20033;-55
2023/04/11 05:12:32;;;;;;;2.65;1.63;;;14.60;84.50;;;;;;5042946;28;20069;-56
2023/04/11 05:14:58;;;;;;;6.07;1.35;;;14.60;84.50;;;;;;5043224;28;20037;-56
2023/04/11 05:17:25;;;;;;;8.95;1.80;;;14.60;84.70;;;;;;5044433;28;20036;-56
2023/04/11 05:19:50;;;;;;;4.38;1.50;;;14.60;84.70;;;;;;5043143;28;20021;-56
2023/04/11 05:22:16;;;;;;;5.88;1.35;;;14.60;84.80;;;;;;5043200;28;20021;-56
2023/04/11 05:24:41;;;;;;;8.10;1.50;;;14.60;84.90;;;;;;5026413;28;20390;-56
2023/04/11 05:27:07;;;;;;;4.00;1.55;;;14.60;85.10;;;;;;5044308;28;20026;-56
2023/04/11 05:29:32;;;;;;;2.63;1.23;;;14.60;85.10;;;;;;5042918;28;20037;-56
2023/04/11 05:31:58;;;;;;;7.80;1.23;;;14.50;85.70;;;;;;5042955;28;20025;-56
2023/04/11 05:34:23;;;;;;;4.97;1.67;;;14.50;85.10;;;;;;5044476;28;20064;-56
2023/04/11 05:36:49;;;;;;;9.73;1.67;;;14.50;85.00;;;;;;5046649;28;20036;-56
2023/04/11 05:39:15;;;;;;;2.90;1.58;;;14.50;84.90;;;;;;5046704;28;20022;-56
2023/04/11 05:41:40;;;;;;;1.30;1.02;;;14.50;85.00;;;;;;5047846;28;20030;-56
2023/04/11 05:44:06;;;;;;;5.38;1.73;;;14.50;85.10;;;;;;5048067;28;20036;-56
2023/04/11 05:46:36;;;;;;;1.70;1.10;;;14.50;85.10;;;;;;5047999;28;20037;-56
2023/04/11 05:49:01;;;;;;;4.13;1.30;;;14.60;85.20;;;;;;5046491;28;20070;-56
2023/04/11 05:51:27;;;;;;;32.10;2.17;;;14.50;85.10;;;;;;5047626;28;20041;-56
2023/04/11 05:53:52;;;;;;;8.27;1.38;;;14.50;85.20;;;;;;5046295;28;20032;-56
2023/04/11 05:56:19;;;;;;;2.50;1.25;;;14.60;85.40;;;;;;5046266;28;20386;-56
2023/04/11 05:58:44;;;;;;;3.58;1.40;;;14.50;85.30;;;;;;5047622;28;20036;-56
2023/04/11 06:01:17;;;;;;;1.90;1.10;;;14.50;85.40;;;;;;5046314;28;20049;-55
2023/04/11 06:03:46;;;;;;;3.42;1.10;;;14.50;85.60;;;;;;5046413;28;20029;-56
2023/04/11 06:06:12;;;;;;;6.40;1.50;;;14.50;85.60;;;;;;5046111;28;20045;-56
2023/04/11 06:08:37;;;;;;;2.42;1.20;;;14.50;85.80;;;;;;5046099;28;20370;-56
2023/04/11 06:11:03;;;;;;;4.20;0.82;;;14.50;85.80;;;;;;5045932;28;20033;-56
2023/04/11 06:13:29;;;;;;;2.45;1.00;;;14.50;85.80;;;;;;5045983;28;20093;-56
2023/04/11 06:15:55;;;;;;;4.95;1.30;;;14.40;85.70;;;;;;5046445;28;20037;-56
2023/04/11 06:18:20;;;;;;;2.90;0.85;;;14.40;85.70;;;;;;5046675;28;20030;-56
2023/04/11 06:20:47;;;;;;;4.70;1.23;;;14.50;86.30;;;;;;5029414;28;20030;-56
2023/04/11 06:23:13;;;;;;;2.88;0.95;;;14.40;85.80;;;;;;5046496;28;20039;-56
2023/04/11 06:25:38;;;;;;;7.20;1.30;;;14.50;85.80;;;;;;5029561;28;20049;-56
2023/04/11 06:28:04;;;;;;;5.35;1.02;;;14.40;85.70;;;;;;5045852;28;20458;-56
2023/04/11 06:30:30;;;;;;;1.38;1.00;;;14.50;85.90;;;;;;5029241;28;20030;-56
2023/04/11 06:32:55;;;;;;;1.77;0.80;;;14.40;85.80;;;;;;5044714;28;20071;-57
2023/04/11 06:35:23;;;;;;;1.67;1.08;;;14.40;85.80;;;;;;5046880;28;20065;-56
2023/04/11 06:37:50;;;;;;;3.22;1.00;;;14.40;85.80;;;;;;5046793;28;20540;-56
2023/04/11 06:40:18;;;;;;;3.33;0.90;;;14.40;85.80;;;;;;5045323;28;20476;-56
2023/04/11 06:42:45;;;;;;;1.75;1.00;;;14.40;85.80;;;;;;5046046;28;20053;-56
2023/04/11 06:45:11;;;;;;;1.98;0.82;;;14.40;85.70;;;;;;5044923;28;20033;-56
2023/04/11 06:47:36;;;;;;;4.38;1.00;;;14.50;85.70;;;;;;5046787;28;20041;-56
2023/04/11 06:50:02;;;;;;;2.70;1.10;;;14.50;85.60;;;;;;5044311;28;20040;-56
2023/04/11 06:52:29;;;;;;;2.00;1.00;;;14.40;85.40;;;;;;5046161;28;20057;-56
2023/04/11 06:54:54;;;;;;;2.28;0.95;;;14.40;85.50;;;;;;5046567;28;20045;-56
2023/04/11 06:57:20;;;;;;;2.55;1.05;;;14.40;85.50;;;;;;5045032;28;20029;-56
2023/04/11 06:59:45;;;;;;;2.38;0.77;;;14.50;85.60;;;;;;5044826;28;20085;-56
2023/04/11 07:02:11;;;;;;;4.82;1.05;;;14.50;85.70;;;;;;5046271;28;20026;-56
2023/04/11 07:04:37;;;;;;;3.90;0.95;;;14.40;85.70;;;;;;5046591;28;20034;-56
2023/04/11 07:07:03;;;;;;;3.28;0.90;;;14.40;85.80;;;;;;5044995;28;20097;-56
2023/04/11 07:09:29;;;;;;;2.50;0.88;;;14.40;85.90;;;;;;5044377;28;20106;-57
2023/04/11 07:11:55;;;;;;;2.60;1.02;;;14.50;86.10;;;;;;5046180;28;20026;-56
2023/04/11 07:14:20;;;;;;;2.60;1.25;;;14.40;86.00;;;;;;5044674;28;20045;-56
2023/04/11 07:16:46;;;;;;;8.00;1.50;;;14.40;86.20;;;;;;5046113;28;20025;-56
2023/04/11 07:19:12;;;;;;;7.05;1.80;;;14.40;86.30;;;;;;5044664;28;20048;-57
2023/04/11 07:21:37;;;;;;;22.10;2.80;;;14.40;86.30;;;;;;5045853;28;20124;-56
2023/04/11 07:24:05;;;;;;;17.45;2.15;;;14.40;86.50;;;;;;5044584;28;20500;-56
2023/04/11 07:26:31;;;;;;;17.48;2.60;;;14.40;86.70;;;;;;5044405;28;20051;-56
2023/04/11 07:28:57;;;;;;;33.65;3.83;;;14.40;86.70;;;;;;5043058;28;20057;-56
2023/04/11 07:31:23;;;;;;;24.40;4.10;;;14.30;86.60;;;;;;5044431;28;20043;-56
2023/04/11 07:33:50;;;;;;;38.58;4.78;;;14.30;86.80;;;;;;5045868;28;20033;-56
2023/04/11 07:36:15;;;;;;;62.58;6.05;;;14.30;86.90;;;;;;5043508;28;20033;-56
2023/04/11 07:38:41;;;;;;;44.00;5.20;;;14.00;87.40;;;;;;5061238;28;20137;-56
2023/04/11 07:41:07;;;;;;;46.40;5.80;;;14.30;87.10;;;;;;5045105;28;20336;-56
2023/04/11 07:43:32;;;;;;;111.03;12.63;;;14.30;87.30;;;;;;5044442;28;20041;-56
2023/04/11 07:45:58;;;;;;;105.82;10.25;;;14.30;87.40;;;;;;5045537;28;20042;-56
2023/04/11 07:48:25;;;;;;;391.13;43.65;;;14.30;87.50;;;;;;5077685;28;20080;-56
2023/04/11 07:50:51;;;;;;;98.88;11.07;;;14.30;87.60;;;;;;5045675;28;20033;-56
2023/04/11 07:53:16;;;;;;;86.03;10.02;;;14.30;87.60;;;;;;5045616;28;20130;-56
2023/04/11 07:55:42;;;;;;;82.93;8.20;;;14.20;87.70;;;;;;5077364;28;20033;-56
2023/04/11 07:58:07;;;;;;;67.30;8.15;;;14.30;87.70;;;;;;5043384;28;20036;-56
2023/04/11 08:00:33;;;;;;;77.90;10.05;;;14.20;87.70;;;;;;5044091;28;20100;-56
2023/04/11 08:03:03;;;;;;;71.22;9.10;;;14.30;87.80;;;;;;5060524;28;20086;-56
2023/04/11 08:05:29;;;;;;;79.00;8.68;;;14.20;87.70;;;;;;5044010;28;20128;-56
2023/04/11 08:07:55;;;;;;;70.85;7.97;;;14.30;87.80;;;;;;5045066;28;20458;-56
2023/04/11 08:10:20;;;;;;;51.10;6.75;;;14.30;87.80;;;;;;5043721;28;20056;-56
2023/04/11 08:12:46;;;;;;;52.10;7.43;;;14.30;87.70;;;;;;5043629;28;20033;-56
2023/04/11 08:15:11;;;;;;;51.22;7.15;;;14.20;87.70;;;;;;5043762;28;20063;-56
2023/04/11 08:17:37;;;;;;;53.83;6.10;;;14.30;87.60;;;;;;5044948;28;20022;-56
2023/04/11 08:20:04;;;;;;;35.65;5.65;;;14.30;87.50;;;;;;5043615;28;20048;-56
2023/04/11 08:22:32;;;;;;;35.60;5.43;;;14.30;87.40;;;;;;5043284;28;20105;-56
2023/04/11 08:24:57;;;;;;;46.15;5.35;;;14.30;87.30;;;;;;5044988;28;20033;-56
2023/04/11 08:27:23;;;;;;;41.10;5.75;;;14.30;87.40;;;;;;5043347;28;20368;-56
2023/04/11 08:29:48;;;;;;;38.25;5.20;;;14.30;87.20;;;;;;5043399;28;20029;-56
2023/04/11 08:32:14;;;;;;;44.25;5.90;;;14.30;87.20;;;;;;5026702;28;20033;-56
2023/04/11 08:34:39;;;;;;;38.47;4.72;;;14.30;87.10;;;;;;5043282;28;20031;-56
2023/04/11 08:37:05;;;;;;;46.08;6.15;;;14.20;87.00;;;;;;5043523;28;20017;-56
2023/04/11 08:39:31;;;;;;;50.05;5.82;;;14.20;86.90;;;;;;5044858;28;20021;-56
2023/04/11 08:41:56;;;;;;;39.92;5.93;;;14.20;86.90;;;;;;5044995;28;20025;-56
2023/04/11 08:44:22;;;;;;;40.55;6.15;;;14.30;86.80;;;;;;5043822;28;20051;-56
2023/04/11 08:46:47;;;;;;;68.15;7.72;;;14.30;86.60;;;;;;5070642;28;20036;-56
2023/04/11 08:49:13;;;;;;;54.40;5.82;;;14.30;86.60;;;;;;5016446;28;20030;-56
2023/04/11 08:51:39;;;;;;;80.07;7.82;;;14.30;86.50;;;;;;5024162;28;20069;-57
2023/04/11 08:54:05;;;;;;;53.15;7.32;;;14.30;86.60;;;;;;5043048;28;20034;-56
2023/04/11 08:56:32;;;;;;;50.28;8.43;;;14.30;86.10;;;;;;5024959;28;20081;-56
2023/04/11 08:58:57;;;;;;;69.22;8.05;;;14.30;85.80;;;;;;5041976;28;20034;-56
2023/04/11 09:01:27;;;;;;;62.42;7.95;;;14.30;85.60;;;;;;5043443;28;20032;-56
2023/04/11 09:03:53;;;;;;;52.35;7.50;;;14.30;85.60;;;;;;5044584;28;20041;-56
2023/04/11 09:06:18;;;;;;;34.88;6.70;;;14.30;86.30;;;;;;5042801;28;20040;-56
2023/04/11 09:08:44;;;;;;;55.78;7.50;;;14.30;85.40;;;;;;5045605;28;20030;-56
2023/04/11 09:11:10;;;;;;;59.63;5.72;;;14.40;85.40;;;;;;5047274;28;20030;-56
2023/04/11 09:13:35;;;;;;;45.80;6.78;;;14.40;85.20;;;;;;5047154;28;20074;-56
2023/04/11 09:16:05;;;;;;;47.30;6.35;;;14.40;85.60;;;;;;5048039;28;20117;-56
2023/04/11 09:18:41;;;;;;;36.80;5.40;;;14.40;84.70;;;;;;5029967;28;20120;-56
2023/04/11 09:21:09;;;;;;;43.78;6.53;;;14.40;84.50;;;;;;5029863;28;20025;-56
2023/04/11 09:23:34;;;;;;;76.07;7.68;;;14.40;84.40;;;;;;5046344;28;20108;-56
2023/04/11 09:26:00;;;;;;;71.00;9.15;;;14.40;84.40;;;;;;5046474;28;20029;-56
2023/04/11 09:28:26;;;;;;;71.75;8.25;;;14.50;84.50;;;;;;5045751;28;20120;-57
2023/04/11 09:30:53;;;;;;;59.90;7.15;;;14.40;84.30;;;;;;5046858;28;20064;-56
2023/04/11 09:33:21;;;;;;;41.72;7.60;;;14.50;84.00;;;;;;5045786;28;20085;-56
2023/04/11 09:35:48;;;;;;;87.25;9.50;;;14.50;83.90;;;;;;5045748;28;20022;-56
2023/04/11 09:38:14;;;;;;;84.28;11.23;;;14.50;83.80;;;;;;5029290;28;20029;-55
2023/04/11 09:40:43;;;;;;;62.55;8.63;;;14.40;84.20;;;;;;5046027;28;20032;-56
2023/04/11 09:43:08;;;;;;;47.00;7.03;;;14.50;83.80;;;;;;5009706;28;20030;-56
2023/04/11 09:45:34;;;;;;;41.60;6.75;;;14.50;83.40;;;;;;5026041;28;20092;-56
2023/04/11 09:47:59;;;;;;;56.03;6.70;;;14.20;83.10;;;;;;5025786;28;20085;-56
2023/04/11 09:50:25;;;;;;;41.17;5.88;;;14.50;83.40;;;;;;5027282;28;20042;-56
2023/04/11 09:52:57;;;;;;;41.80;6.32;;;14.60;83.10;;;;;;5043457;28;20034;-56
2023/04/11 09:55:23;;;;;;;37.28;5.65;;;14.60;83.10;;;;;;5041148;28;20038;-56
2023/04/11 09:57:53;;;;;;;53.65;7.15;;;14.60;82.90;;;;;;5040868;28;20067;-56
2023/04/11 10:00:20;;;;;;;57.42;7.05;;;14.60;82.90;;;;;;5047502;28;20179;-57
2023/04/11 10:02:48;;;;;;;49.25;6.65;;;14.60;82.80;;;;;;5042900;28;20043;-56
2023/04/11 10:05:14;;;;;;;41.72;6.20;;;14.70;82.70;;;;;;5037552;28;20151;-56
2023/04/11 10:08:01;;;;;;;68.25;9.45;;;14.70;82.50;;;;;;5045218;28;20041;-56
2023/04/11 10:10:27;;;;;;;60.75;8.73;;;14.70;82.00;;;;;;5044596;28;20044;-56
2023/04/11 10:12:52;;;;;;;50.70;7.55;;;14.70;82.00;;;;;;5045173;28;20021;-57
2023/04/11 10:15:18;;;;;;;51.83;6.68;;;14.80;82.20;;;;;;5046645;28;20030;-56
2023/04/11 10:18:09;;;;;;;67.10;7.90;;;14.80;82.00;;;;;;5028244;28;20065;-56
2023/04/11 10:20:37;;;;;;;48.38;6.22;;;14.80;82.00;;;;;;5043520;28;20165;-56
2023/04/11 10:23:03;;;;;;;35.78;5.97;;;14.90;81.70;;;;;;5045665;28;20036;-56
2023/04/11 10:25:29;;;;;;;41.95;6.22;;;14.90;81.30;;;;;;5078733;28;20029;-56
2023/04/11 10:28:03;;;;;;;44.00;6.10;;;14.90;81.10;;;;;;5043452;28;20474;-56
2023/04/11 10:30:57;;;;;;;44.75;6.13;;;15.00;81.70;;;;;;5029437;28;20036;-56
2023/04/11 10:33:25;;;;;;;49.92;6.55;;;15.00;80.80;;;;;;5042275;28;20046;-56
2023/04/11 10:36:11;;;;;;;46.95;6.82;;;15.00;80.60;;;;;;5044300;28;20025;-57
2023/04/11 10:38:39;;;;;;;45.78;6.82;;;15.00;80.50;;;;;;5044520;28;20033;-56
2023/04/11 10:41:20;;;;;;;81.53;8.70;;;15.00;80.40;;;;;;5045660;28;20055;-56
2023/04/11 10:43:46;;;;;;;50.30;7.82;;;15.00;80.30;;;;;;5046108;28;20400;-57
2023/04/11 10:46:22;;;;;;;73.30;10.13;;;15.10;80.30;;;;;;5044987;28;20037;-56
2023/04/11 10:49:01;;;;;;;65.82;9.05;;;15.10;80.10;;;;;;5044872;28;20033;-56
2023/04/11 10:51:27;;;;;;;100.05;13.18;;;15.10;80.00;;;;;;5044653;28;20056;-56
2023/04/11 10:53:54;;;;;;;114.97;14.02;;;15.10;79.90;;;;;;5061410;28;20045;-56
2023/04/11 10:56:41;;;;;;;72.60;9.77;;;15.10;79.80;;;;;;5027898;28;20025;-57
2023/04/11 10:59:26;;;;;;;54.92;7.20;;;15.10;79.60;;;;;;5045823;28;20021;-57
2023/04/11 11:01:54;;;;;;;42.08;6.75;;;15.10;78.80;;;;;;5027289;28;20034;-56
2023/04/11 11:04:20;;;;;;;88.72;10.65;;;15.10;78.50;;;;;;5039853;28;20033;-56
2023/04/11 11:06:46;;;;;;;86.88;9.45;;;15.10;78.70;;;;;;5044711;28;20037;-57
2023/04/11 11:09:20;;;;;;;82.82;8.75;;;15.10;78.50;;;;;;5028106;28;20029;-56
2023/04/11 11:12:08;;;;;;;93.18;8.95;;;15.10;78.50;;;;;;5044704;28;20032;-57
2023/04/11 11:14:34;;;;;;;89.22;10.57;;;15.10;78.60;;;;;;5044188;28;20037;-57
2023/04/11 11:17:01;;;;;;;126.10;12.55;;;15.20;79.00;;;;;;5044262;28;20025;-57
2023/04/11 11:19:27;;;;;;;109.38;11.70;;;15.10;79.00;;;;;;5011430;28;20029;-57
2023/04/11 11:21:53;;;;;;;106.90;12.40;;;15.10;78.90;;;;;;5048820;28;20021;-57
2023/04/11 11:24:25;;;;;;;178.57;18.98;;;15.20;78.90;;;;;;5064022;28;20029;-56
2023/04/11 11:26:52;;;;;;;81.25;9.68;;;15.20;78.60;;;;;;5041087;28;20113;-57
2023/04/11 11:29:37;;;;;;;76.95;9.93;;;15.20;78.40;;;;;;5038398;28;20026;-57
2023/04/11 11:32:03;;;;;;;91.35;10.40;;;15.20;78.00;;;;;;5032257;28;20052;-57
2023/04/11 11:34:33;;;;;;;130.68;13.90;;;15.20;78.10;;;;;;5045146;28;20041;-57
2023/04/11 11:37:00;;;;;;;75.53;9.57;;;15.20;78.00;;;;;;5080283;28;20025;-57
2023/04/11 11:39:26;;;;;;;78.60;10.20;;;15.10;78.00;;;;;;5065156;28;20085;-56
2023/04/11 11:41:52;;;;;;;95.15;12.02;;;15.20;78.50;;;;;;5033551;28;20053;-57
2023/04/11 11:44:27;;;;;;;78.70;10.38;;;15.10;77.60;;;;;;5043895;28;20025;-57
2023/04/11 11:47:03;;;;;;;85.00;10.57;;;15.10;77.40;;;;;;5026093;28;20033;-57
2023/04/11 11:49:48;;;;;;;77.60;10.07;;;15.10;77.30;;;;;;5050799;28;20030;-57
2023/04/11 11:52:36;;;;;;;146.40;18.00;;;15.10;77.50;;;;;;5077753;28;20453;-56
2023/04/11 11:55:17;;;;;;;85.95;12.20;;;15.10;77.50;;;;;;5059336;28;20025;-56
2023/04/11 11:57:46;;;;;;;168.55;19.00;;;15.10;77.50;;;;;;5059725;28;20025;-56
2023/04/11 12:00:13;;;;;;;65.93;10.10;;;15.10;77.60;;;;;;5059566;28;20477;-56
2023/04/11 12:02:40;;;;;;;65.95;8.82;;;15.10;77.40;;;;;;5068652;28;20040;-56
2023/04/11 12:05:07;;;;;;;64.93;8.43;;;15.10;77.20;;;;;;5078556;28;20151;-56
2023/04/11 12:07:34;;;;;;;72.55;8.90;;;15.10;77.10;;;;;;5059427;28;20037;-56
2023/04/11 12:10:01;;;;;;;104.40;12.48;;;15.10;77.00;;;;;;5054652;28;20030;-55
2023/04/11 12:12:36;;;;;;;73.75;10.27;;;15.10;77.00;;;;;;5041894;28;20029;-56
2023/04/11 12:15:13;;;;;;;103.35;11.52;;;15.10;77.10;;;;;;5060930;28;20439;-56
2023/04/11 12:17:38;;;;;;;84.13;10.40;;;15.10;77.20;;;;;;5059375;28;20021;-56
2023/04/11 12:20:09;;;;;;;69.22;9.20;;;15.10;77.20;;;;;;5055118;28;20109;-56
2023/04/11 12:22:35;;;;;;;76.75;9.48;;;15.10;77.10;;;;;;5064964;28;20116;-56
2023/04/11 12:25:04;;;;;;;75.18;8.70;;;15.10;77.00;;;;;;5062806;28;20021;-56
2023/04/11 12:27:32;;;;;;;75.03;8.65;;;15.10;76.80;;;;;;5079170;28;20047;-56
2023/04/11 12:29:57;;;;;;;57.92;8.35;;;15.10;76.80;;;;;;5055022;28;20057;-56
2023/04/11 12:32:23;;;;;;;50.72;7.47;;;15.10;76.70;;;;;;5054219;28;20027;-56
2023/04/11 12:34:49;;;;;;;55.40;7.85;;;15.10;76.50;;;;;;5062636;28;20039;-56
2023/04/11 12:37:14;;;;;;;69.22;7.50;;;15.10;76.40;;;;;;5062739;28;20030;-56
2023/04/11 12:39:41;;;;;;;43.33;7.35;;;15.20;76.40;;;;;;5058760;28;20021;-56